Time;durP1;ratioP1;P1;durP2;ratioP2;P2;SDS_P1;SDS_P2;PMS_P1;PMS_P2;Temp;Humidity;BMP_temperature;BMP_pressure;BME280_temperature;BME280_humidity;BME280_pressure;Samples;Min_cycle;Max_cycle;Signal;HPM_P1;HPM_P2
2021/11/27 00:00:31;;;;;;;7.77;2.77;;;14.60;99.90;;;;;;5021290;28;20197;-66
2021/11/27 00:02:59;;;;;;;5.63;2.30;;;14.60;99.90;;;;;;5021074;28;20224;-66
2021/11/27 00:05:28;;;;;;;6.43;2.47;;;14.60;99.90;;;;;;5006759;28;20231;-65
2021/11/27 00:07:55;;;;;;;6.50;2.50;;;14.60;99.90;;;;;;5021126;28;20227;-66
2021/11/27 00:10:27;;;;;;;4.73;2.47;;;14.60;99.90;;;;;;5006330;28;20189;-66
2021/11/27 00:12:54;;;;;;;6.37;2.30;;;14.50;99.90;;;;;;5010751;28;20184;-66
2021/11/27 00:15:26;;;;;;;6.77;2.20;;;14.50;99.90;;;;;;5027608;28;20185;-66
2021/11/27 00:17:55;;;;;;;4.70;2.23;;;14.50;99.90;;;;;;4999935;28;20672;-66
2021/11/27 00:20:34;;;;;;;4.90;2.30;;;14.50;99.90;;;;;;4993607;28;20195;-66
2021/11/27 00:23:01;;;;;;;5.40;2.60;;;14.60;99.90;;;;;;5001905;28;20216;-66
2021/11/27 00:25:27;;;;;;;4.10;2.30;;;14.60;99.90;;;;;;5016569;28;20192;-65
2021/11/27 00:27:53;;;;;;;4.87;2.60;;;14.70;99.90;;;;;;4993887;28;20279;-66
2021/11/27 00:30:34;;;;;;;4.67;2.53;;;14.70;99.90;;;;;;4999183;28;20213;-66
2021/11/27 00:33:02;;;;;;;4.47;2.40;;;14.70;99.90;;;;;;4996852;28;20197;-65
2021/11/27 00:35:29;;;;;;;4.77;2.47;;;14.70;99.90;;;;;;4999664;28;20235;-66
2021/11/27 00:37:58;;;;;;;4.77;2.37;;;14.80;99.90;;;;;;5000148;28;20255;-65
2021/11/27 00:40:27;;;;;;;4.27;2.27;;;14.80;99.90;;;;;;5000893;28;20199;-66
2021/11/27 00:42:54;;;;;;;4.53;2.20;;;14.80;99.90;;;;;;5000718;28;20247;-66
2021/11/27 00:45:23;;;;;;;4.27;2.27;;;14.80;99.90;;;;;;5001118;28;20665;-66
2021/11/27 00:47:53;;;;;;;6.63;2.40;;;14.80;99.90;;;;;;5001014;28;20209;-66
2021/11/27 00:50:30;;;;;;;7.10;2.30;;;14.80;99.90;;;;;;4997038;28;20327;-66
2021/11/27 00:53:00;;;;;;;4.70;2.57;;;14.80;99.90;;;;;;5027721;28;20608;-66
2021/11/27 00:55:28;;;;;;;7.43;2.23;;;14.90;99.90;;;;;;4997970;28;20224;-66
2021/11/27 00:57:55;;;;;;;7.80;2.97;;;14.90;99.90;;;;;;5000479;28;20195;-66
2021/11/27 01:00:31;;;;;;;4.47;2.20;;;14.90;99.90;;;;;;5000070;28;20201;-67
2021/11/27 01:03:03;;;;;;;6.70;2.60;;;14.90;99.90;;;;;;4998091;28;20196;-67
2021/11/27 01:05:32;;;;;;;5.10;2.30;;;14.90;99.90;;;;;;5000864;28;20187;-67
2021/11/27 01:07:59;;;;;;;3.03;2.17;;;15.00;99.90;;;;;;5000632;28;20213;-68
2021/11/27 01:10:30;;;;;;;7.40;2.70;;;15.00;99.90;;;;;;5000508;28;20277;-68
2021/11/27 01:12:57;;;;;;;6.03;2.20;;;15.00;99.90;;;;;;5032624;28;20258;-68
2021/11/27 01:15:32;;;;;;;4.10;2.00;;;15.00;99.90;;;;;;5000246;28;20200;-68
2021/11/27 01:18:00;;;;;;;7.77;2.20;;;15.00;99.90;;;;;;5000175;28;20192;-67
2021/11/27 01:20:40;;;;;;;4.33;2.20;;;15.00;99.90;;;;;;5000145;28;20833;-68
2021/11/27 01:23:08;;;;;;;5.63;2.33;;;15.10;99.90;;;;;;5002550;28;20192;-69
2021/11/27 01:25:34;;;;;;;5.80;2.30;;;15.10;99.90;;;;;;4999268;28;20672;-69
2021/11/27 01:28:01;;;;;;;4.50;2.10;;;15.10;99.90;;;;;;4997634;28;20759;-68
2021/11/27 01:30:27;;;;;;;4.10;2.00;;;15.10;99.90;;;;;;4999502;28;20185;-69
2021/11/27 01:32:54;;;;;;;5.67;2.10;;;15.00;99.90;;;;;;5000688;28;20843;-68
2021/11/27 01:35:21;;;;;;;4.53;2.00;;;15.10;99.90;;;;;;4996483;28;20197;-68
2021/11/27 01:37:47;;;;;;;5.60;2.00;;;15.00;99.90;;;;;;5014334;28;20204;-67
2021/11/27 01:40:21;;;;;;;7.50;2.10;;;15.10;99.90;;;;;;4995341;28;20222;-67
2021/11/27 01:42:48;;;;;;;6.70;2.10;;;15.00;99.90;;;;;;4999533;28;20235;-67
2021/11/27 01:45:17;;;;;;;3.50;2.07;;;15.00;99.90;;;;;;4999956;28;20189;-67
2021/11/27 01:48:10;;;;;;;4.70;2.10;;;15.00;99.90;;;;;;5031322;28;20275;-67
2021/11/27 01:50:51;;;;;;;5.23;2.00;;;15.00;99.90;;;;;;4998346;28;20279;-67
2021/11/27 01:53:18;;;;;;;5.07;1.80;;;15.00;99.90;;;;;;4991962;28;20189;-67
2021/11/27 01:55:45;;;;;;;4.70;1.97;;;15.00;99.90;;;;;;5014501;28;20188;-67
2021/11/27 01:58:12;;;;;;;7.50;2.43;;;14.90;99.90;;;;;;5013993;28;20188;-67
2021/11/27 02:00:44;;;;;;;5.10;2.47;;;14.80;99.90;;;;;;4998264;28;22177;-67
2021/11/27 02:03:10;;;;;;;5.20;2.20;;;14.60;99.90;;;;;;4999993;28;20254;-67
2021/11/27 02:05:37;;;;;;;3.73;2.07;;;14.60;99.90;;;;;;5000088;28;20201;-67
2021/11/27 02:08:04;;;;;;;6.37;2.33;;;14.50;99.90;;;;;;4999624;28;20278;-68
2021/11/27 02:10:31;;;;;;;7.13;2.30;;;14.40;99.90;;;;;;5031875;28;20199;-67
2021/11/27 02:12:57;;;;;;;10.27;2.40;;;14.40;99.90;;;;;;4999021;28;20645;-67
2021/11/27 02:15:24;;;;;;;3.40;1.93;;;14.50;99.90;;;;;;5000229;28;20212;-67
2021/11/27 02:17:50;;;;;;;8.20;2.10;;;14.40;99.90;;;;;;4991915;28;20200;-67
2021/11/27 02:20:18;;;;;;;4.83;2.00;;;14.30;99.90;;;;;;4999764;28;20250;-67
2021/11/27 02:22:44;;;;;;;3.70;2.10;;;14.10;99.90;;;;;;4997128;28;20204;-67
2021/11/27 02:25:19;;;;;;;4.27;2.37;;;14.10;99.90;;;;;;4995216;28;20195;-67
2021/11/27 02:27:51;;;;;;;4.53;2.23;;;14.10;99.90;;;;;;4999099;28;20347;-66
2021/11/27 02:30:23;;;;;;;8.80;2.40;;;14.10;99.90;;;;;;4999190;28;20213;-66
2021/11/27 02:32:51;;;;;;;10.30;2.33;;;14.20;99.90;;;;;;4999279;28;20203;-66
2021/11/27 02:35:18;;;;;;;4.83;2.43;;;14.20;99.90;;;;;;5000668;28;21032;-67
2021/11/27 02:37:45;;;;;;;6.73;2.47;;;14.10;99.90;;;;;;5000102;28;20347;-66
2021/11/27 02:40:13;;;;;;;7.77;2.20;;;14.10;99.90;;;;;;5000071;28;20196;-67
2021/11/27 02:42:40;;;;;;;3.80;2.13;;;14.10;99.90;;;;;;4999744;28;20216;-67
2021/11/27 02:45:09;;;;;;;3.43;2.20;;;14.10;99.90;;;;;;4999063;28;20217;-66
2021/11/27 02:47:36;;;;;;;11.17;1.97;;;14.10;99.90;;;;;;5001747;28;22075;-67
2021/11/27 02:50:06;;;;;;;4.67;2.30;;;14.00;99.90;;;;;;4992779;28;20501;-66
2021/11/27 02:52:33;;;;;;;7.00;2.47;;;14.00;99.90;;;;;;5003282;28;20189;-68
2021/11/27 02:55:00;;;;;;;3.83;1.83;;;13.90;99.90;;;;;;5010016;28;20193;-68
2021/11/27 02:57:30;;;;;;;4.87;2.20;;;13.90;99.90;;;;;;5033406;28;20197;-68
2021/11/27 02:59:58;;;;;;;2.30;1.57;;;13.90;99.90;;;;;;5001332;28;20877;-68
2021/11/27 03:02:26;;;;;;;7.10;2.00;;;13.90;99.90;;;;;;5035778;28;20197;-68
2021/11/27 03:04:53;;;;;;;4.03;1.60;;;13.90;99.90;;;;;;5034017;28;20295;-68
2021/11/27 03:07:20;;;;;;;3.53;1.93;;;13.90;99.90;;;;;;5002855;28;20216;-68
2021/11/27 03:09:47;;;;;;;2.50;1.50;;;13.90;99.90;;;;;;5003176;28;20529;-67
2021/11/27 03:12:14;;;;;;;3.13;1.93;;;13.90;99.90;;;;;;4998175;28;20858;-68
2021/11/27 03:14:40;;;;;;;3.60;2.10;;;13.90;99.90;;;;;;5001997;28;20200;-68
2021/11/27 03:17:07;;;;;;;3.63;1.70;;;13.90;99.90;;;;;;5001198;28;20189;-69
2021/11/27 03:19:39;;;;;;;2.10;1.60;;;13.90;99.90;;;;;;5002547;28;20665;-69
2021/11/27 03:22:06;;;;;;;3.67;2.10;;;13.80;99.90;;;;;;5018140;28;20272;-69
2021/11/27 03:24:37;;;;;;;2.90;1.60;;;13.80;99.90;;;;;;4999527;28;20189;-68
2021/11/27 03:27:04;;;;;;;4.60;2.13;;;13.80;99.90;;;;;;4995848;28;20209;-67
2021/11/27 03:29:32;;;;;;;6.60;1.67;;;13.80;99.90;;;;;;5005811;28;20250;-69
2021/11/27 03:32:13;;;;;;;8.10;1.80;;;13.80;99.90;;;;;;5006836;28;20227;-69
2021/11/27 03:34:41;;;;;;;3.57;1.87;;;13.60;99.90;;;;;;4995636;28;20211;-69
2021/11/27 03:37:09;;;;;;;4.27;1.60;;;13.50;99.90;;;;;;5005441;28;20200;-69
2021/11/27 03:39:36;;;;;;;7.70;2.00;;;13.40;99.90;;;;;;5006478;28;20193;-67
2021/11/27 03:42:09;;;;;;;4.10;1.70;;;13.40;99.90;;;;;;5006582;28;20223;-67
2021/11/27 03:44:36;;;;;;;3.97;1.80;;;13.40;99.90;;;;;;5007510;28;20275;-67
2021/11/27 03:47:04;;;;;;;3.13;2.00;;;13.50;99.90;;;;;;5022411;28;20190;-67
2021/11/27 03:49:32;;;;;;;3.70;1.83;;;13.50;99.90;;;;;;5007811;28;20304;-67
2021/11/27 03:52:00;;;;;;;2.97;1.80;;;13.50;99.90;;;;;;5021995;28;20283;-67
2021/11/27 03:54:27;;;;;;;2.73;1.80;;;13.60;99.90;;;;;;5006256;28;20250;-67
2021/11/27 03:56:54;;;;;;;4.77;1.87;;;13.50;99.90;;;;;;4996994;28;20188;-67
2021/11/27 03:59:21;;;;;;;6.77;2.17;;;13.50;99.90;;;;;;5006706;28;20733;-67
2021/11/27 04:01:49;;;;;;;2.73;1.60;;;13.50;99.90;;;;;;5004308;28;20199;-67
2021/11/27 04:04:17;;;;;;;3.93;2.07;;;13.50;99.90;;;;;;5003154;28;20193;-67
2021/11/27 04:06:43;;;;;;;2.57;1.70;;;13.40;99.90;;;;;;5016524;28;20250;-67
2021/11/27 04:09:12;;;;;;;7.37;2.00;;;13.40;99.90;;;;;;5022076;28;20204;-67
2021/11/27 04:11:41;;;;;;;4.97;1.80;;;13.30;99.90;;;;;;5005437;28;20191;-67
2021/11/27 04:14:10;;;;;;;4.00;2.10;;;13.40;99.90;;;;;;5022834;28;20286;-67
2021/11/27 04:16:37;;;;;;;3.23;2.07;;;13.40;99.90;;;;;;5004417;28;20192;-67
2021/11/27 04:19:03;;;;;;;3.37;1.90;;;13.30;99.90;;;;;;5038612;28;20188;-67
2021/11/27 04:21:30;;;;;;;3.00;2.00;;;13.30;99.90;;;;;;5006855;28;20692;-67
2021/11/27 04:23:57;;;;;;;7.70;2.10;;;13.30;99.90;;;;;;5006586;28;20570;-67
2021/11/27 04:26:23;;;;;;;4.60;2.10;;;13.40;99.90;;;;;;5002508;28;20267;-67
2021/11/27 04:28:52;;;;;;;5.83;2.20;;;13.40;99.90;;;;;;4999158;28;20225;-67
2021/11/27 04:31:18;;;;;;;5.63;2.10;;;13.30;99.90;;;;;;5005465;28;20323;-67
2021/11/27 04:33:46;;;;;;;2.70;1.73;;;13.30;99.90;;;;;;5005126;28;20192;-65
2021/11/27 04:36:13;;;;;;;5.83;2.07;;;13.30;99.90;;;;;;5000697;28;20192;-65
2021/11/27 04:38:40;;;;;;;4.07;1.90;;;13.30;99.90;;;;;;5006587;28;20530;-66
2021/11/27 04:41:07;;;;;;;3.63;2.23;;;13.30;99.90;;;;;;5006015;28;20220;-66
2021/11/27 04:43:33;;;;;;;3.47;1.77;;;13.30;99.90;;;;;;5005936;28;20192;-66
2021/11/27 04:46:01;;;;;;;4.20;1.80;;;13.30;99.90;;;;;;5004157;28;20514;-67
2021/11/27 04:48:27;;;;;;;5.60;2.43;;;13.30;99.90;;;;;;5005989;28;20296;-67
2021/11/27 04:50:54;;;;;;;6.00;2.50;;;13.30;99.90;;;;;;5006117;28;20230;-67
2021/11/27 04:53:20;;;;;;;2.73;1.70;;;13.30;99.90;;;;;;5035279;28;20184;-66
2021/11/27 04:55:47;;;;;;;3.80;1.90;;;13.40;99.90;;;;;;5004092;28;20197;-65
2021/11/27 04:58:14;;;;;;;3.90;1.80;;;13.40;99.90;;;;;;4997354;28;20263;-66
2021/11/27 05:00:45;;;;;;;3.13;1.90;;;13.40;99.90;;;;;;5003560;28;20219;-66
2021/11/27 05:03:12;;;;;;;5.87;1.70;;;13.40;99.90;;;;;;5004708;28;20665;-66
2021/11/27 05:05:38;;;;;;;3.30;1.90;;;13.40;99.90;;;;;;5037334;28;20193;-66
2021/11/27 05:08:06;;;;;;;5.63;2.20;;;13.40;99.90;;;;;;5004458;28;20211;-67
2021/11/27 05:10:32;;;;;;;2.00;1.43;;;13.40;99.90;;;;;;5029808;28;20241;-67
2021/11/27 05:12:59;;;;;;;6.83;2.10;;;13.40;99.90;;;;;;5005102;28;20345;-67
2021/11/27 05:15:25;;;;;;;5.57;2.10;;;13.50;99.90;;;;;;5005168;28;20512;-67
2021/11/27 05:17:52;;;;;;;5.20;2.20;;;13.50;99.90;;;;;;5020224;28;20181;-67
2021/11/27 05:20:18;;;;;;;4.90;1.77;;;13.60;99.90;;;;;;4988193;28;20726;-67
2021/11/27 05:22:45;;;;;;;3.37;1.87;;;13.60;99.90;;;;;;5020500;28;20185;-67
2021/11/27 05:25:12;;;;;;;3.97;1.70;;;13.60;99.90;;;;;;5005786;28;20200;-67
2021/11/27 05:27:39;;;;;;;2.70;1.90;;;13.70;99.90;;;;;;5004415;28;20235;-66
2021/11/27 05:30:11;;;;;;;3.07;1.87;;;13.70;99.90;;;;;;4997935;28;20197;-67
2021/11/27 05:35:09;;;;;;;2.87;2.00;;;13.70;99.90;;;;;;4998852;28;20181;-68
2021/11/27 05:37:37;;;;;;;10.30;2.17;;;13.70;99.90;;;;;;5003832;28;20691;-68
2021/11/27 05:40:08;;;;;;;4.43;1.90;;;13.70;99.90;;;;;;5005700;28;20815;-68
2021/11/27 05:42:34;;;;;;;4.37;1.90;;;13.80;99.90;;;;;;5005526;28;20522;-68
2021/11/27 05:45:00;;;;;;;2.80;2.00;;;13.80;99.90;;;;;;5003804;28;20199;-68
2021/11/27 05:47:27;;;;;;;5.23;1.70;;;13.80;99.90;;;;;;5026685;28;20680;-67
2021/11/27 05:49:53;;;;;;;5.37;1.87;;;13.90;99.90;;;;;;5004731;28;20192;-67
2021/11/27 05:52:20;;;;;;;3.43;2.00;;;13.90;99.90;;;;;;5004638;28;20189;-67
2021/11/27 05:54:47;;;;;;;5.13;2.07;;;14.00;99.90;;;;;;5005315;28;20499;-68
2021/11/27 05:57:13;;;;;;;5.53;1.97;;;14.00;99.90;;;;;;5002372;28;20196;-68
2021/11/27 05:59:40;;;;;;;4.13;2.00;;;14.10;99.90;;;;;;5000283;28;20192;-68
2021/11/27 06:02:06;;;;;;;2.87;2.07;;;14.10;99.90;;;;;;4982031;28;20188;-66
2021/11/27 06:04:33;;;;;;;2.70;2.00;;;14.20;99.90;;;;;;5018192;28;20185;-66
2021/11/27 06:06:59;;;;;;;2.87;1.87;;;14.20;99.90;;;;;;5003724;28;20195;-66
2021/11/27 06:09:26;;;;;;;6.00;2.03;;;14.30;99.90;;;;;;5004375;28;20217;-66
2021/11/27 06:11:52;;;;;;;4.53;1.93;;;14.30;99.90;;;;;;5002255;28;20193;-66
2021/11/27 06:14:18;;;;;;;2.77;1.83;;;14.30;99.90;;;;;;4997691;28;20197;-68
2021/11/27 06:16:45;;;;;;;3.03;1.80;;;14.40;99.90;;;;;;5003580;28;20200;-66
2021/11/27 06:19:11;;;;;;;3.87;2.13;;;14.40;99.90;;;;;;5004717;28;20284;-66
2021/11/27 06:21:38;;;;;;;3.17;2.00;;;14.50;99.90;;;;;;5006183;28;20529;-66
2021/11/27 06:24:07;;;;;;;4.93;1.80;;;14.50;99.90;;;;;;5009029;28;20694;-66
2021/11/27 06:26:34;;;;;;;6.23;1.93;;;14.60;99.90;;;;;;5008626;28;20317;-67
2021/11/27 06:29:01;;;;;;;3.80;1.90;;;14.60;99.90;;;;;;5008275;28;20682;-66
2021/11/27 06:31:27;;;;;;;4.53;1.90;;;14.70;99.90;;;;;;4999017;28;24343;-66
2021/11/27 06:33:53;;;;;;;3.67;2.40;;;14.70;99.90;;;;;;5008665;28;20637;-67
2021/11/27 06:36:20;;;;;;;2.80;1.90;;;14.80;99.90;;;;;;5007501;28;20193;-67
2021/11/27 06:38:46;;;;;;;3.67;1.83;;;14.80;99.90;;;;;;5008786;28;20208;-66
2021/11/27 06:41:12;;;;;;;3.40;1.90;;;14.80;99.90;;;;;;5023610;28;20197;-66
2021/11/27 06:43:39;;;;;;;3.77;2.00;;;14.90;99.90;;;;;;5023441;28;20201;-66
2021/11/27 06:46:05;;;;;;;4.53;2.10;;;14.90;99.90;;;;;;5005962;28;20204;-66
2021/11/27 06:48:31;;;;;;;6.30;2.70;;;14.90;99.90;;;;;;5006880;28;20217;-66
2021/11/27 06:50:57;;;;;;;4.70;2.10;;;14.90;99.90;;;;;;5009332;28;20196;-65
2021/11/27 06:53:24;;;;;;;4.27;2.10;;;15.00;99.90;;;;;;5007960;28;20193;-66
2021/11/27 06:55:50;;;;;;;2.47;1.90;;;15.00;99.90;;;;;;5039644;28;20189;-66
2021/11/27 06:58:17;;;;;;;3.63;1.90;;;15.00;99.90;;;;;;5007410;28;21004;-66
2021/11/27 07:00:43;;;;;;;6.77;2.17;;;15.10;99.90;;;;;;5036485;28;20587;-66
2021/11/27 07:03:09;;;;;;;4.67;1.83;;;15.10;99.90;;;;;;4983196;28;20199;-67
2021/11/27 07:05:36;;;;;;;4.30;1.90;;;15.10;99.90;;;;;;5008082;28;20188;-66
2021/11/27 07:08:02;;;;;;;4.70;1.90;;;15.10;99.90;;;;;;4990560;28;20208;-66
2021/11/27 07:10:28;;;;;;;4.70;1.97;;;15.20;99.90;;;;;;5008880;28;20195;-67
2021/11/27 07:12:56;;;;;;;3.93;1.97;;;15.20;99.90;;;;;;5009570;28;20265;-68
2021/11/27 07:15:23;;;;;;;6.77;1.90;;;15.20;99.90;;;;;;5006401;28;20792;-67
2021/11/27 07:17:49;;;;;;;3.20;1.67;;;15.20;99.90;;;;;;5038164;28;20213;-67
2021/11/27 07:20:18;;;;;;;2.87;1.80;;;15.30;99.90;;;;;;5012691;28;20257;-67
2021/11/27 07:22:45;;;;;;;3.40;1.80;;;15.40;99.90;;;;;;5005433;28;20239;-67
2021/11/27 07:25:11;;;;;;;5.80;1.93;;;15.50;99.90;;;;;;5007130;28;20207;-66
2021/11/27 07:27:38;;;;;;;4.50;1.93;;;15.50;99.90;;;;;;5006065;28;20219;-67
2021/11/27 07:30:06;;;;;;;3.10;2.07;;;15.50;99.90;;;;;;5007138;28;20200;-66
2021/11/27 07:32:32;;;;;;;5.97;1.77;;;15.50;99.90;;;;;;5001467;28;20541;-67
2021/11/27 07:34:59;;;;;;;4.80;2.13;;;15.60;99.90;;;;;;4997626;28;20205;-67
2021/11/27 07:37:25;;;;;;;4.73;2.07;;;15.60;99.90;;;;;;5003671;28;20254;-66
2021/11/27 07:39:51;;;;;;;2.70;1.50;;;15.60;99.90;;;;;;5007448;28;20200;-67
2021/11/27 07:42:18;;;;;;;5.57;1.87;;;15.60;99.90;;;;;;5035834;28;20188;-67
2021/11/27 07:44:44;;;;;;;5.13;1.60;;;15.70;99.90;;;;;;5007398;28;20201;-67
2021/11/27 07:47:11;;;;;;;3.20;1.90;;;15.90;99.90;;;;;;5006925;28;20897;-66
2021/11/27 07:49:37;;;;;;;2.83;1.70;;;16.00;99.90;;;;;;5037026;28;20668;-66
2021/11/27 07:52:04;;;;;;;3.93;1.77;;;16.10;99.90;;;;;;5006885;28;20740;-66
2021/11/27 07:54:30;;;;;;;2.83;1.70;;;16.30;99.90;;;;;;5007086;28;20957;-66
2021/11/27 07:56:57;;;;;;;5.23;1.50;;;16.40;99.90;;;;;;4987920;28;20197;-68
2021/11/27 07:59:23;;;;;;;3.00;1.57;;;16.40;99.90;;;;;;5005780;28;20288;-66
2021/11/27 08:01:50;;;;;;;3.10;1.50;;;16.50;99.90;;;;;;5005171;28;20185;-66
2021/11/27 08:04:18;;;;;;;5.87;1.90;;;16.60;99.90;;;;;;4996563;28;20193;-65
2021/11/27 08:06:45;;;;;;;4.60;1.83;;;16.70;99.90;;;;;;5030556;28;20193;-65
2021/11/27 08:09:11;;;;;;;5.77;1.50;;;17.00;99.90;;;;;;5006835;28;20223;-66
2021/11/27 08:11:37;;;;;;;2.93;1.50;;;17.20;99.90;;;;;;4989004;28;20239;-66
2021/11/27 08:14:04;;;;;;;3.33;1.50;;;17.30;99.90;;;;;;5005085;28;20192;-66
2021/11/27 08:16:31;;;;;;;3.40;1.80;;;17.30;99.90;;;;;;5005745;28;20979;-67
2021/11/27 08:18:57;;;;;;;4.67;1.50;;;17.30;99.90;;;;;;4986806;28;20783;-67
2021/11/27 08:21:25;;;;;;;3.33;1.70;;;17.50;99.90;;;;;;5002930;28;20197;-66
2021/11/27 08:23:51;;;;;;;3.13;1.77;;;17.50;99.90;;;;;;5006641;28;20193;-66
2021/11/27 08:26:19;;;;;;;2.77;1.60;;;17.60;99.90;;;;;;5005390;28;20204;-66
2021/11/27 08:28:46;;;;;;;3.63;1.50;;;17.60;99.90;;;;;;5003384;28;20307;-66
2021/11/27 08:31:13;;;;;;;4.53;1.80;;;17.70;99.90;;;;;;5006051;28;20580;-66
2021/11/27 08:33:39;;;;;;;4.10;1.83;;;17.70;99.90;;;;;;4984361;28;20189;-66
2021/11/27 08:36:06;;;;;;;4.47;1.97;;;17.90;99.90;;;;;;5000013;28;20196;-65
2021/11/27 08:38:32;;;;;;;2.63;1.70;;;18.00;99.90;;;;;;5002905;28;20220;-66
2021/11/27 08:40:59;;;;;;;2.83;1.70;;;18.10;99.90;;;;;;5005917;28;20193;-66
2021/11/27 08:43:25;;;;;;;1.73;1.60;;;18.10;99.90;;;;;;5002557;28;20203;-67
2021/11/27 08:45:52;;;;;;;8.63;2.13;;;18.10;99.90;;;;;;5033253;28;20199;-67
2021/11/27 08:48:20;;;;;;;2.30;1.57;;;18.10;99.90;;;;;;5004544;28;20231;-66
2021/11/27 08:50:46;;;;;;;3.33;1.77;;;18.10;99.90;;;;;;5005451;28;20692;-68
2021/11/27 08:53:13;;;;;;;2.50;1.50;;;18.30;99.90;;;;;;5005437;28;20219;-67
2021/11/27 08:55:39;;;;;;;7.90;2.93;;;18.30;99.90;;;;;;5004721;28;20231;-67
2021/11/27 08:58:06;;;;;;;6.30;1.80;;;18.40;99.90;;;;;;5002462;28;20223;-67
2021/11/27 09:00:32;;;;;;;2.17;1.90;;;18.40;99.90;;;;;;5002624;28;20298;-67
2021/11/27 09:02:59;;;;;;;5.87;2.20;;;18.60;99.90;;;;;;5014399;28;20200;-67
2021/11/27 09:05:26;;;;;;;6.47;1.90;;;18.70;99.90;;;;;;4997969;28;21194;-67
2021/11/27 09:07:53;;;;;;;3.40;1.90;;;18.70;99.90;;;;;;5001719;28;20212;-67
2021/11/27 09:10:21;;;;;;;4.63;2.10;;;18.70;99.90;;;;;;5004882;28;20185;-67
2021/11/27 09:12:47;;;;;;;4.77;2.00;;;18.70;99.90;;;;;;5003110;28;20181;-67
2021/11/27 09:15:14;;;;;;;3.43;1.90;;;18.80;99.90;;;;;;5033926;28;20287;-67
2021/11/27 09:17:40;;;;;;;7.80;2.17;;;18.80;99.90;;;;;;4991879;28;20188;-67
2021/11/27 09:20:07;;;;;;;6.87;1.90;;;18.90;99.90;;;;;;5005253;28;20195;-68
2021/11/27 09:22:34;;;;;;;5.53;1.90;;;19.00;99.90;;;;;;5005946;28;20219;-67
2021/11/27 09:25:03;;;;;;;3.20;2.07;;;19.00;99.90;;;;;;5001725;28;20204;-67
2021/11/27 09:27:29;;;;;;;3.13;1.70;;;18.90;99.90;;;;;;5002414;28;20709;-67
2021/11/27 09:29:56;;;;;;;2.53;1.70;;;18.90;99.90;;;;;;5002116;28;20221;-67
2021/11/27 09:32:22;;;;;;;2.87;1.70;;;19.00;99.90;;;;;;5004715;28;20199;-66
2021/11/27 09:34:49;;;;;;;3.70;2.00;;;19.00;99.90;;;;;;5005060;28;20295;-66
2021/11/27 09:37:17;;;;;;;4.90;2.23;;;19.20;99.90;;;;;;4993917;28;20686;-66
2021/11/27 09:39:45;;;;;;;6.50;2.07;;;19.20;99.90;;;;;;5004364;28;20199;-66
2021/11/27 09:42:18;;;;;;;3.40;1.70;;;19.20;99.90;;;;;;5005171;28;20649;-65
2021/11/27 09:44:54;;;;;;;2.70;1.70;;;19.20;99.90;;;;;;5004674;28;20253;-67
2021/11/27 09:47:21;;;;;;;3.87;1.80;;;19.20;99.90;;;;;;5003748;28;20254;-66
2021/11/27 09:49:49;;;;;;;4.70;2.00;;;19.20;99.90;;;;;;4996976;28;20653;-67
2021/11/27 09:52:16;;;;;;;3.73;1.80;;;19.30;99.90;;;;;;5000777;28;20951;-67
2021/11/27 09:54:43;;;;;;;5.53;1.90;;;19.40;99.90;;;;;;4985306;28;20185;-66
2021/11/27 09:57:10;;;;;;;6.17;2.93;;;19.40;99.90;;;;;;5007356;28;20184;-66
2021/11/27 09:59:40;;;;;;;4.60;2.53;;;19.60;99.90;;;;;;5006050;28;20569;-66
2021/11/27 10:02:10;;;;;;;8.23;3.73;;;19.40;99.90;;;;;;5005957;28;20184;-66
2021/11/27 10:04:48;;;;;;;6.63;3.00;;;19.30;99.90;;;;;;5005021;28;20185;-66
2021/11/27 10:07:19;;;;;;;7.37;3.53;;;19.20;99.90;;;;;;4999694;28;20196;-69
2021/11/27 10:09:51;;;;;;;3.07;2.27;;;19.30;99.90;;;;;;5006677;28;20207;-69
2021/11/27 10:12:22;;;;;;;6.83;2.33;;;19.40;99.90;;;;;;5008480;28;20712;-69
2021/11/27 10:14:48;;;;;;;3.93;2.50;;;19.60;99.90;;;;;;5006713;28;20275;-69
2021/11/27 10:17:18;;;;;;;4.87;2.60;;;19.80;99.90;;;;;;5014379;28;20259;-69
2021/11/27 10:19:46;;;;;;;3.90;2.20;;;20.10;99.90;;;;;;5008777;28;20184;-69
2021/11/27 10:22:41;;;;;;;6.97;2.20;;;20.50;99.90;;;;;;5006950;28;20188;-69
2021/11/27 10:25:27;;;;;;;5.13;2.10;;;21.80;99.90;;;;;;5017784;28;20200;-69
2021/11/27 10:28:20;;;;;;;6.93;2.17;;;22.10;99.90;;;;;;5006774;28;20240;-69
2021/11/27 10:31:03;;;;;;;6.67;2.00;;;23.90;99.90;;;;;;5002609;28;20200;-69
2021/11/27 10:33:36;;;;;;;3.57;2.10;;;25.10;99.90;;;;;;4991458;28;20323;-69
2021/11/27 10:36:10;;;;;;;4.43;2.37;;;25.20;99.90;;;;;;5008844;28;20216;-69
2021/11/27 10:38:51;;;;;;;5.23;3.00;;;23.80;99.90;;;;;;4998987;28;20189;-69
2021/11/27 10:41:19;;;;;;;3.37;1.70;;;23.10;99.90;;;;;;5008692;28;20185;-68
2021/11/27 10:44:04;;;;;;;2.93;1.73;;;22.80;99.90;;;;;;5007108;28;20251;-69
2021/11/27 10:46:37;;;;;;;3.73;2.30;;;22.50;99.90;;;;;;5008130;28;20304;-69
2021/11/27 10:49:08;;;;;;;10.93;2.40;;;22.60;99.90;;;;;;5008625;28;20552;-69
2021/11/27 10:51:35;;;;;;;6.50;2.10;;;22.40;99.90;;;;;;5008651;28;20881;-69
2021/11/27 10:54:06;;;;;;;5.23;2.00;;;21.90;99.90;;;;;;5008745;28;20211;-69
2021/11/27 10:56:45;;;;;;;9.60;1.90;;;21.40;99.90;;;;;;5007795;28;20200;-68
2021/11/27 10:59:13;;;;;;;9.77;2.10;;;21.00;99.90;;;;;;5006234;28;20761;-68
2021/11/27 11:02:08;;;;;;;3.80;2.10;;;20.60;99.90;;;;;;5007079;28;20705;-68
2021/11/27 11:04:35;;;;;;;3.17;2.00;;;20.40;99.90;;;;;;5008348;28;21121;-68
2021/11/27 11:07:17;;;;;;;4.23;1.87;;;20.20;99.90;;;;;;5005067;28;20817;-68
2021/11/27 11:10:07;;;;;;;5.00;1.87;;;20.10;99.90;;;;;;4995651;28;20217;-68
2021/11/27 11:12:50;;;;;;;8.20;2.13;;;20.10;99.90;;;;;;5008225;28;20196;-69
2021/11/27 11:15:28;;;;;;;5.33;2.07;;;20.10;99.90;;;;;;5016807;28;20201;-68
2021/11/27 11:18:25;;;;;;;4.40;1.90;;;20.20;99.90;;;;;;5006835;28;20718;-68
2021/11/27 11:21:00;;;;;;;5.20;2.00;;;20.30;99.90;;;;;;5007900;28;20185;-68
2021/11/27 11:23:38;;;;;;;5.57;2.00;;;20.30;99.90;;;;;;5003486;28;20238;-69
2021/11/27 11:26:20;;;;;;;7.50;2.00;;;20.40;99.90;;;;;;5008210;28;20184;-68
2021/11/27 11:28:49;;;;;;;3.70;1.93;;;20.40;99.90;;;;;;5003154;28;20741;-68
2021/11/27 11:31:23;;;;;;;3.60;1.90;;;20.40;99.90;;;;;;4990435;28;20189;-68
2021/11/27 11:33:59;;;;;;;4.13;1.93;;;20.50;99.90;;;;;;4990339;28;20191;-69
2021/11/27 11:36:27;;;;;;;6.90;2.17;;;20.40;99.90;;;;;;4994437;28;20200;-69
2021/11/27 11:38:58;;;;;;;3.27;1.80;;;20.40;99.90;;;;;;5004207;28;20184;-68
2021/11/27 11:41:29;;;;;;;4.53;2.00;;;20.50;99.90;;;;;;5002529;28;20192;-69
2021/11/27 11:43:56;;;;;;;4.87;2.33;;;20.50;99.90;;;;;;5007458;28;20191;-68
2021/11/27 11:46:24;;;;;;;4.57;1.90;;;20.40;99.90;;;;;;5005828;28;20759;-68
2021/11/27 11:48:55;;;;;;;5.17;1.70;;;20.40;99.90;;;;;;5005050;28;20248;-68
2021/11/27 11:51:46;;;;;;;2.70;1.50;;;20.40;99.90;;;;;;5006187;28;20831;-69
2021/11/27 11:54:14;;;;;;;6.47;2.17;;;20.40;99.90;;;;;;5007618;28;20501;-69
2021/11/27 11:56:44;;;;;;;7.37;1.87;;;20.30;99.90;;;;;;5004695;28;20288;-68
2021/11/27 11:59:26;;;;;;;3.10;1.73;;;20.30;99.90;;;;;;5005321;28;20185;-68
2021/11/27 12:02:24;;;;;;;2.80;1.83;;;20.30;99.90;;;;;;5007445;28;20753;-68
2021/11/27 12:05:08;;;;;;;5.77;1.60;;;20.30;99.90;;;;;;5007848;28;20177;-68
2021/11/27 12:07:43;;;;;;;3.03;1.57;;;20.30;99.90;;;;;;5005055;28;20195;-69
2021/11/27 12:10:37;;;;;;;5.33;2.43;;;20.30;99.90;;;;;;4985489;28;20184;-68
2021/11/27 12:13:10;;;;;;;4.47;2.53;;;20.20;99.90;;;;;;5003769;28;20181;-68
2021/11/27 12:15:47;;;;;;;6.03;1.90;;;20.20;99.90;;;;;;5007111;28;20201;-68
2021/11/27 12:18:20;;;;;;;2.33;1.70;;;20.20;99.90;;;;;;5002724;28;20188;-68
2021/11/27 12:20:53;;;;;;;4.73;1.53;;;20.10;99.90;;;;;;5006015;28;20189;-68
2021/11/27 12:23:29;;;;;;;1.80;1.47;;;20.10;99.90;;;;;;5007161;28;20228;-69
2021/11/27 12:26:11;;;;;;;2.90;1.63;;;20.00;99.90;;;;;;5004745;28;20200;-68
2021/11/27 12:28:50;;;;;;;7.47;2.00;;;19.90;99.90;;;;;;5005628;28;20942;-68
2021/11/27 12:31:25;;;;;;;2.80;1.93;;;19.90;99.90;;;;;;4989386;28;20291;-68
2021/11/27 12:34:00;;;;;;;4.07;2.03;;;19.80;99.90;;;;;;4989092;28;20188;-69
2021/11/27 12:36:26;;;;;;;4.50;2.83;;;19.70;99.90;;;;;;5004959;28;20772;-68
2021/11/27 12:39:03;;;;;;;3.23;2.10;;;19.70;99.90;;;;;;5006716;28;20238;-68
2021/11/27 12:41:36;;;;;;;5.23;2.10;;;19.70;99.90;;;;;;5001937;28;20231;-68
2021/11/27 12:44:28;;;;;;;6.00;2.13;;;19.60;99.90;;;;;;5002040;28;20645;-68
2021/11/27 12:47:13;;;;;;;6.10;1.90;;;19.60;99.90;;;;;;5012342;28;20203;-68
2021/11/27 12:49:42;;;;;;;5.10;2.10;;;19.60;99.90;;;;;;5006804;28;20228;-68
2021/11/27 12:52:17;;;;;;;4.07;2.10;;;19.70;99.90;;;;;;5007576;28;20177;-68
2021/11/27 12:54:50;;;;;;;5.60;2.30;;;19.60;99.90;;;;;;5005090;28;20193;-69
2021/11/27 12:57:21;;;;;;;5.00;2.30;;;19.60;99.90;;;;;;5004332;28;20189;-68
2021/11/27 13:00:09;;;;;;;3.67;1.90;;;19.60;99.90;;;;;;5009748;28;20262;-68